THY270 LTFJ-LTFM
Flight info
| Callsign | THY270 |
|---|---|
| Flight time | 0h 20m |
| Altitude | 10000 |
| Route | IVGUS1J/06L IVGUS Y226 BIG N604 INBET INBET1C |
| Aircraft | A333/H-V/N |
Departure
| Time | 2026-04-30 20:21 |
|---|---|
| Airport | Istanbul Sabiha Gökçen International Airport (LTFJ) |
Arrival
| Time | 2026-04-30 20:41 |
|---|---|
| Airport | İstanbul Airport (LTFM) |
| Time | Latitude | Longitude | Altitude | Speed | Heading |
|---|---|---|---|---|---|
| 2026-04-30 20:03 | 40.89594 | 29.30918 | 321 ft | 0 kts | 154° |
| 2026-04-30 20:11 | 40.89605 | 29.30911 | 319 ft | 2 kts | 157° |
| 2026-04-30 20:11 | 40.89620 | 29.30903 | 318 ft | 2 kts | 162° |
| 2026-04-30 20:11 | 40.89636 | 29.30898 | 317 ft | 2 kts | 169° |
| 2026-04-30 20:12 | 40.89668 | 29.30900 | 317 ft | 2 kts | 207° |
| 2026-04-30 20:12 | 40.89681 | 29.30913 | 317 ft | 2 kts | 233° |
| 2026-04-30 20:12 | 40.89688 | 29.30926 | 317 ft | 1 kts | 242° |
| 2026-04-30 20:13 | 40.89689 | 29.30928 | 317 ft | 0 kts | 243° |
| 2026-04-30 20:15 | 40.89684 | 29.30914 | 317 ft | 4 kts | 243° |
| 2026-04-30 20:15 | 40.89666 | 29.30867 | 318 ft | 7 kts | 243° |
| 2026-04-30 20:15 | 40.89643 | 29.30807 | 319 ft | 7 kts | 243° |
| 2026-04-30 20:15 | 40.89642 | 29.30768 | 318 ft | 3 kts | 290° |
| 2026-04-30 20:16 | 40.89681 | 29.30724 | 320 ft | 11 kts | 330° |
| 2026-04-30 20:16 | 40.89771 | 29.30658 | 319 ft | 19 kts | 329° |
| 2026-04-30 20:16 | 40.89823 | 29.30516 | 322 ft | 7 kts | 272° |
| 2026-04-30 20:16 | 40.89825 | 29.30475 | 322 ft | 0 kts | 272° |
| 2026-04-30 20:17 | 40.89825 | 29.30458 | 322 ft | 5 kts | 272° |
| 2026-04-30 20:17 | 40.89828 | 29.30368 | 318 ft | 13 kts | 272° |
| 2026-04-30 20:17 | 40.89806 | 29.30230 | 320 ft | 18 kts | 248° |
| 2026-04-30 20:17 | 40.89748 | 29.30065 | 320 ft | 22 kts | 244° |
| 2026-04-30 20:18 | 40.89676 | 29.29868 | 319 ft | 26 kts | 244° |
| 2026-04-30 20:18 | 40.89599 | 29.29658 | 320 ft | 27 kts | 244° |
| 2026-04-30 20:18 | 40.89522 | 29.29448 | 320 ft | 24 kts | 244° |
| 2026-04-30 20:18 | 40.89485 | 29.29346 | 318 ft | 13 kts | 244° |
| 2026-04-30 20:19 | 40.89474 | 29.29315 | 319 ft | 4 kts | 244° |
| 2026-04-30 20:19 | 40.89461 | 29.29286 | 320 ft | 5 kts | 234° |
| 2026-04-30 20:19 | 40.89418 | 29.29261 | 320 ft | 6 kts | 187° |
| 2026-04-30 20:19 | 40.89366 | 29.29277 | 320 ft | 11 kts | 160° |
| 2026-04-30 20:20 | 40.89291 | 29.29323 | 319 ft | 11 kts | 139° |
| 2026-04-30 20:20 | 40.89302 | 29.29432 | 319 ft | 25 kts | 66° |
| 2026-04-30 20:20 | 40.89505 | 29.29966 | 319 ft | 105 kts | 64° |
| 2026-04-30 20:20 | 40.89923 | 29.31110 | 456 ft | 161 kts | 63° |
| 2026-04-30 20:21 | 40.90376 | 29.32345 | 1861 ft | 139 kts | 61° |
| 2026-04-30 20:21 | 40.90861 | 29.33577 | 2583 ft | 169 kts | 60° |
| 2026-04-30 20:21 | 40.91461 | 29.35104 | 3067 ft | 205 kts | 63° |
| 2026-04-30 20:21 | 40.92109 | 29.36903 | 3776 ft | 228 kts | 64° |
| 2026-04-30 20:22 | 40.92743 | 29.38903 | 4737 ft | 244 kts | 73° |
| 2026-04-30 20:22 | 40.92867 | 29.41188 | 5730 ft | 256 kts | 101° |
| 2026-04-30 20:22 | 40.92125 | 29.43322 | 6491 ft | 259 kts | 134° |
| 2026-04-30 20:22 | 40.90718 | 29.44738 | 6887 ft | 257 kts | 155° |
| 2026-04-30 20:23 | 40.89108 | 29.45775 | 6997 ft | 257 kts | 159° |
| 2026-04-30 20:23 | 40.87472 | 29.46750 | 6994 ft | 258 kts | 159° |
| 2026-04-30 20:23 | 40.85829 | 29.47654 | 6992 ft | 256 kts | 166° |
| 2026-04-30 20:23 | 40.84072 | 29.47976 | 6995 ft | 254 kts | 187° |
| 2026-04-30 20:24 | 40.82386 | 29.47392 | 6997 ft | 250 kts | 209° |
| 2026-04-30 20:24 | 40.80975 | 29.46067 | 6996 ft | 248 kts | 222° |
| 2026-04-30 20:24 | 40.79731 | 29.44519 | 6984 ft | 248 kts | 231° |
| 2026-04-30 20:24 | 40.78951 | 29.42506 | 6995 ft | 247 kts | 250° |
| 2026-04-30 20:25 | 40.78462 | 29.38011 | 6971 ft | 251 kts | 274° |
| 2026-04-30 20:25 | 40.78848 | 29.35785 | 6943 ft | 253 kts | 285° |
| 2026-04-30 20:26 | 40.80066 | 29.31411 | 6920 ft | 253 kts | 288° |
| 2026-04-30 20:26 | 40.81152 | 29.27798 | 6293 ft | 254 kts | 289° |
| 2026-04-30 20:26 | 40.81811 | 29.25630 | 5867 ft | 253 kts | 290° |
| 2026-04-30 20:27 | 40.83326 | 29.20649 | 5049 ft | 249 kts | 291° |
| 2026-04-30 20:27 | 40.84420 | 29.17051 | 4937 ft | 255 kts | 291° |
| 2026-04-30 20:28 | 40.85668 | 29.12945 | 4930 ft | 226 kts | 291° |
| 2026-04-30 20:28 | 40.86816 | 29.09160 | 4952 ft | 222 kts | 291° |
| 2026-04-30 20:29 | 40.87972 | 29.05347 | 4963 ft | 224 kts | 291° |
| 2026-04-30 20:30 | 40.89705 | 28.99617 | 4966 ft | 224 kts | 291° |
| 2026-04-30 20:30 | 40.91434 | 28.93883 | 4960 ft | 225 kts | 292° |
| 2026-04-30 20:31 | 40.93177 | 28.88102 | 4962 ft | 225 kts | 292° |
| 2026-04-30 20:32 | 40.94908 | 28.82341 | 4963 ft | 225 kts | 292° |
| 2026-04-30 20:32 | 40.96068 | 28.78478 | 4971 ft | 225 kts | 292° |
| 2026-04-30 20:33 | 40.96647 | 28.76546 | 4962 ft | 226 kts | 292° |
| 2026-04-30 20:33 | 40.98762 | 28.73770 | 4971 ft | 222 kts | 342° |
| 2026-04-30 20:33 | 41.00256 | 28.73399 | 4951 ft | 216 kts | 356° |
| 2026-04-30 20:34 | 41.03028 | 28.73320 | 4948 ft | 189 kts | 0° |
| 2026-04-30 20:34 | 41.05634 | 28.73250 | 4557 ft | 186 kts | 0° |
| 2026-04-30 20:35 | 41.06938 | 28.73221 | 4258 ft | 187 kts | 1° |
| 2026-04-30 20:35 | 41.08217 | 28.73191 | 3944 ft | 179 kts | 2° |
| 2026-04-30 20:35 | 41.10612 | 28.73135 | 3477 ft | 162 kts | 2° |
| 2026-04-30 20:36 | 41.11695 | 28.73108 | 3269 ft | 149 kts | 3° |
| 2026-04-30 20:36 | 41.12685 | 28.73085 | 3064 ft | 136 kts | 4° |
| 2026-04-30 20:36 | 41.14449 | 28.73046 | 2732 ft | 120 kts | 5° |
| 2026-04-30 20:37 | 41.15251 | 28.73027 | 2592 ft | 112 kts | 5° |
| 2026-04-30 20:37 | 41.16028 | 28.73010 | 2432 ft | 111 kts | 5° |
| 2026-04-30 20:37 | 41.16801 | 28.72994 | 2282 ft | 111 kts | 4° |
| 2026-04-30 20:37 | 41.17571 | 28.72975 | 2139 ft | 110 kts | 5° |
| 2026-04-30 20:38 | 41.18328 | 28.72958 | 1983 ft | 110 kts | 5° |
| 2026-04-30 20:38 | 41.19093 | 28.72941 | 1815 ft | 109 kts | 5° |
| 2026-04-30 20:38 | 41.19859 | 28.72924 | 1698 ft | 112 kts | 5° |
| 2026-04-30 20:39 | 41.21456 | 28.72880 | 1364 ft | 115 kts | 3° |
| 2026-04-30 20:39 | 41.22260 | 28.72855 | 1194 ft | 115 kts | 4° |
| 2026-04-30 20:39 | 41.23054 | 28.72838 | 1023 ft | 114 kts | 4° |
| 2026-04-30 20:40 | 41.24635 | 28.72787 | 692 ft | 116 kts | 3° |
| 2026-04-30 20:40 | 41.25415 | 28.72783 | 520 ft | 109 kts | 7° |
| 2026-04-30 20:40 | 41.26176 | 28.72778 | 411 ft | 105 kts | 4° |
| 2026-04-30 20:41 | 41.27360 | 28.72750 | 334 ft | 60 kts | 360° |
| 2026-04-30 20:41 | 41.27714 | 28.72747 | 334 ft | 44 kts | 358° |
| 2026-04-30 20:41 | 41.27987 | 28.72783 | 333 ft | 36 kts | 22° |
| 2026-04-30 20:41 | 41.28124 | 28.72878 | 334 ft | 17 kts | 45° |
| 2026-04-30 20:42 | 41.28105 | 28.72954 | 335 ft | 7 kts | 163° |
| 2026-04-30 20:42 | 41.28044 | 28.72962 | 334 ft | 11 kts | 174° |
| 2026-04-30 20:42 | 41.27757 | 28.72967 | 333 ft | 27 kts | 179° |
| 2026-04-30 20:43 | 41.27562 | 28.72972 | 336 ft | 30 kts | 178° |
| 2026-04-30 20:43 | 41.27343 | 28.72980 | 333 ft | 33 kts | 178° |
| 2026-04-30 20:43 | 41.27103 | 28.72985 | 334 ft | 35 kts | 179° |
| 2026-04-30 20:44 | 41.26950 | 28.73062 | 335 ft | 11 kts | 92° |
| 2026-04-30 20:44 | 41.26954 | 28.73190 | 335 ft | 16 kts | 89° |
| 2026-04-30 20:44 | 41.26872 | 28.73386 | 333 ft | 11 kts | 102° |
| 2026-04-30 20:45 | 41.26793 | 28.73441 | 333 ft | 0 kts | 178° |
| 2026-04-30 20:45 | 41.26784 | 28.73441 | 333 ft | 1 kts | 178° |
| 2026-04-30 20:45 | 41.26783 | 28.73441 | 333 ft | 0 kts | 178° |